首页
METAR-TAF:

METAR-TAF

机场 :

洛里昂, 法国

纬度: 47-46N, 经度: 003-27W, 海拔: 52米

当前天气观测

该预报发布于29分钟前的17:30 UTC
风速11节,风向西南
温度 10°C
湿度 66%
气压 1030 hPa
能见度10公里或以上
阴天层高于2900英尺

METAR: LFRH 211730Z AUTO 23011KT 9999 OVC029 10/04 Q1030 BECMG BKN014

时间: 18:59 (17:59 UTC)

预报

该预报发布于6小时和59分钟前的11:00 UTC
预报有效从21日的 12点(UTC)到 22日的 12点(UTC)
风速13节,风向西南
能见度10公里或以上
阴天层高于4000英尺
成为
从 21日的 17点(UTC)到 21日的 19点(UTC)
多云层高于1200英尺
成为
从 22日的 00点(UTC)到 22日的 02点(UTC)
阴天层高于1000英尺
成为
从 22日的 10点(UTC)到 22日的 12点(UTC)
散云层高于500英尺
多云层高于1000英尺

TAF: LFRH 211100Z 2112/2212 23013KT 9999 OVC040 BECMG 2117/2119 BKN012 BECMG 2200/2202 OVC010 BECMG 2210/2212 SCT005 BKN010

超过4000个机场的气象观测和天气预报(METAR&TAF报告)。

可查询的气象台以黄色和红色小点在地图上表示。

将鼠标移到小点上方,可查看气象台名称。

然后点击查看天气观测和预报。

如需切换地图:点击带黑十字的绿色按钮放大地图;点击带横线的绿色按钮缩小地图;或者点击绿色箭头查看邻近地区的地图。


METAR-TAF: